Time;durP1;ratioP1;P1;durP2;ratioP2;P2;SDS_P1;SDS_P2;PMS_P1;PMS_P2;Temp;Humidity;BMP_temperature;BMP_pressure;BME280_temperature;BME280_humidity;BME280_pressure;Samples;Min_cycle;Max_cycle;Signal;HPM_P1;HPM_P2
2022/02/09 00:03:08;;;;;;;;;;;;;;;;;;5046736;28;19917;-76
2022/02/09 00:06:00;;;;;;;;;;;;;;;;;;5052023;28;19923;-75
2022/02/09 00:08:46;;;;;;;;;;;;;;;;;;5027742;28;20658;-76
2022/02/09 00:12:24;;;;;;;;;;;;;;;;;;5047080;28;19935;-75
2022/02/09 00:14:43;;;;;;;;;;;;;;;;;;5045815;28;19924;-75
2022/02/09 01:12:10;;;;;;;;;;;;;;;;;;5053444;28;20387;-75
2022/02/09 01:39:38;;;;;;;;;;;;;;;;;;5050044;28;19917;-75
2022/02/09 01:57:39;;;;;;;;;;;;;;;;;;5042733;28;19919;-75
2022/02/09 02:00:26;;;;;;;;;;;;;;;;;;5050190;28;19909;-75
2022/02/09 02:03:12;;;;;;;;;;;;;;;;;;5050488;28;19912;-75
2022/02/09 02:05:59;;;;;;;;;;;;;;;;;;5050563;28;19920;-75
2022/02/09 02:08:46;;;;;;;;;;;;;;;;;;5034969;28;19917;-76
2022/02/09 02:11:41;;;;;;;;;;;;;;;;;;5040952;28;19959;-76
2022/02/09 02:15:23;;;;;;;;;;;;;;;;;;5056235;28;19923;-75
2022/02/09 02:17:42;;;;;;;;;;;;;;;;;;5045034;28;19913;-75
2022/02/09 02:20:38;;;;;;;;;;;;;;;;;;5047190;28;19909;-74
2022/02/09 02:27:29;;;;;;;;;;;;;;;;;;5040359;28;19920;-75
2022/02/09 03:09:10;;;;;;;;;;;;;;;;;;5049556;28;19923;-77
2022/02/09 03:12:14;;;;;;;;;;;;;;;;;;5043657;28;20292;-77
2022/02/09 03:15:22;;;;;;;;;;;;;;;;;;5044348;28;19916;-76
2022/02/09 03:19:02;;;;;;;;;;;;;;;;;;5048042;28;20395;-76
2022/02/09 03:24:16;;;;;;;;;;;;;;;;;;5050371;28;20275;-75
2022/02/09 03:27:31;;;;;;;;;;;;;;;;;;5051808;28;20380;-75
2022/02/09 03:43:25;;;;;;;;;;;;;;;;;;5026577;28;19909;-75
2022/02/09 03:58:01;;;;;;;;;;;;;;;;;;5031238;28;19910;-76
2022/02/09 04:00:48;;;;;;;;;;;;;;;;;;5028765;28;19936;-77
2022/02/09 04:03:34;;;;;;;;;;;;;;;;;;5023450;28;19910;-76
2022/02/09 04:06:21;;;;;;;;;;;;;;;;;;5028163;28;19916;-76
2022/02/09 04:09:13;;;;;;;;;;;;;;;;;;5027544;28;19913;-76
2022/02/09 04:14:59;;;;;;;;;;;;;;;;;;5029277;28;19913;-76
2022/02/09 04:42:18;;;;;;;;;;;;;;;;;;5024887;28;19914;-76
2022/02/09 04:57:05;;;;;;;;;;;;;;;;;;5037406;28;20430;-76
2022/02/09 05:00:17;;;;;;;;;;;;;;;;;;5014360;28;20304;-76
2022/02/09 05:22:02;;;;;;;;;;;;;;;;;;5025699;28;19909;-76
2022/02/09 05:27:54;;;;;;;;;;;;;;;;;;5030478;28;20555;-77
2022/02/09 05:30:41;;;;;;;;;;;;;;;;;;5024357;28;20369;-77
2022/02/09 05:33:29;;;;;;;;;;;;;;;;;;5041137;28;20210;-77
2022/02/09 05:36:18;;;;;;;;;;;;;;;;;;5043557;28;19943;-77
2022/02/09 05:39:04;;;;;;;;;;;;;;;;;;5035199;28;20360;-77
2022/02/09 05:41:51;;;;;;;;;;;;;;;;;;5045165;28;19916;-77
2022/02/09 05:44:37;;;;;;;;;;;;;;;;;;5047559;28;19913;-78
2022/02/09 05:53:16;;;;;;;;;;;;;;;;;;5045515;28;19912;-77
2022/02/09 05:59:26;;;;;;;;;;;;;;;;;;5028072;28;19937;-76
2022/02/09 06:02:16;;;;;;;;;;;;;;;;;;5033283;28;19919;-77
2022/02/09 06:05:02;;;;;;;;;;;;;;;;;;5039224;28;19912;-77
2022/02/09 06:07:48;;;;;;;;;;;;;;;;;;5038652;28;19920;-77
2022/02/09 06:10:36;;;;;;;;;;;;;;;;;;5041621;28;19925;-78
2022/02/09 06:13:43;;;;;;;;;;;;;;;;;;5041912;28;19913;-77
2022/02/09 06:19:49;;;;;;;;;;;;;;;;;;5048413;28;19912;-77
2022/02/09 06:22:36;;;;;;;;;;;;;;;;;;5048993;28;19913;-77
2022/02/09 06:25:23;;;;;;;;;;;;;;;;;;5037623;28;19928;-77
2022/02/09 06:28:10;;;;;;;;;;;;;;;;;;5051392;28;20606;-78
2022/02/09 06:30:56;;;;;;;;;;;;;;;;;;5041220;28;19925;-78
2022/02/09 06:33:43;;;;;;;;;;;;;;;;;;5036240;28;20385;-78
2022/02/09 06:36:30;;;;;;;;;;;;;;;;;;5039803;28;19909;-78
2022/02/09 06:39:17;;;;;;;;;;;;;;;;;;5042202;28;20391;-78
2022/02/09 06:42:04;;;;;;;;;;;;;;;;;;5041109;28;20434;-77
2022/02/09 06:44:50;;;;;;;;;;;;;;;;;;5050825;28;19931;-82
2022/02/09 06:47:38;;;;;;;;;;;;;;;;;;5045268;28;20376;-82
2022/02/09 06:50:38;;;;;;;;;;;;;;;;;;5043237;28;19913;-83
2022/02/09 06:53:31;;;;;;;;;;;;;;;;;;5051112;28;19944;-81
2022/02/09 06:56:36;;;;;;;;;;;;;;;;;;5038401;28;19919;-81
2022/02/09 06:59:30;;;;;;;;;;;;;;;;;;5043238;28;19914;-82
2022/02/09 07:02:16;;;;;;;;;;;;;;;;;;5041602;28;19919;-83
2022/02/09 07:05:03;;;;;;;;;;;;;;;;;;5050167;28;19919;-83
2022/02/09 07:07:49;;;;;;;;;;;;;;;;;;5048443;28;19909;-83
2022/02/09 07:10:36;;;;;;;;;;;;;;;;;;5050861;28;19928;-83
2022/02/09 07:13:22;;;;;;;;;;;;;;;;;;5044506;28;19919;-83
2022/02/09 07:16:09;;;;;;;;;;;;;;;;;;5044090;28;19913;-83
2022/02/09 07:18:55;;;;;;;;;;;;;;;;;;5047650;28;19908;-83
2022/02/09 07:21:42;;;;;;;;;;;;;;;;;;5043062;28;20019;-83
2022/02/09 07:24:30;;;;;;;;;;;;;;;;;;5047288;28;19909;-83
2022/02/09 07:30:09;;;;;;;;;;;;;;;;;;5052684;28;19924;-83
2022/02/09 07:32:56;;;;;;;;;;;;;;;;;;5040794;28;19936;-82
2022/02/09 07:35:42;;;;;;;;;;;;;;;;;;5042290;28;19913;-82
2022/02/09 07:38:29;;;;;;;;;;;;;;;;;;5045966;28;19913;-83
2022/02/09 07:41:15;;;;;;;;;;;;;;;;;;5058141;28;20747;-83
2022/02/09 07:44:15;;;;;;;;;;;;;;;;;;5050183;28;19920;-82
2022/02/09 07:47:10;;;;;;;;;;;;;;;;;;5044585;28;20330;-83
2022/02/09 07:53:14;;;;;;;;;;;;;;;;;;5043398;28;19909;-82
2022/02/09 07:56:00;;;;;;;;;;;;;;;;;;5045174;28;19920;-83
2022/02/09 07:58:47;;;;;;;;;;;;;;;;;;5050457;28;19909;-83
2022/02/09 08:01:33;;;;;;;;;;;;;;;;;;5049091;28;19920;-82
2022/02/09 08:04:20;;;;;;;;;;;;;;;;;;5036885;28;20397;-83
2022/02/09 08:07:06;;;;;;;;;;;;;;;;;;5045880;28;19920;-83
2022/02/09 08:09:56;;;;;;;;;;;;;;;;;;5051735;28;19912;-83
2022/02/09 08:33:42;;;;;;;;;;;;;;;;;;5044584;28;20311;-82
2022/02/09 08:36:28;;;;;;;;;;;;;;;;;;5042886;28;19916;-83
2022/02/09 08:39:15;;;;;;;;;;;;;;;;;;5047515;28;20402;-83
2022/02/09 08:42:01;;;;;;;;;;;;;;;;;;5038968;28;19924;-83
2022/02/09 08:44:47;;;;;;;;;;;;;;;;;;5047640;28;20485;-83
2022/02/09 08:47:34;;;;;;;;;;;;;;;;;;5048858;28;19919;-83
2022/02/09 08:50:21;;;;;;;;;;;;;;;;;;5042138;28;19921;-83
2022/02/09 08:53:07;;;;;;;;;;;;;;;;;;5036215;28;19922;-83
2022/02/09 08:55:54;;;;;;;;;;;;;;;;;;5039577;28;19913;-83
2022/02/09 08:58:43;;;;;;;;;;;;;;;;;;5048617;28;20288;-83
2022/02/09 09:01:56;;;;;;;;;;;;;;;;;;5053915;28;19916;-83
2022/02/09 09:04:44;;;;;;;;;;;;;;;;;;5047918;28;19912;-83
2022/02/09 09:07:35;;;;;;;;;;;;;;;;;;5049592;28;19914;-83
2022/02/09 09:10:32;;;;;;;;;;;;;;;;;;5046323;28;19917;-83
2022/02/09 09:25:18;;;;;;;;;;;;;;;;;;5047805;28;19938;-83
2022/02/09 10:00:05;;;;;;;;;;;;;;;;;;5055772;28;19920;-83
2022/02/09 10:02:27;;;;;;;;;;;;;;;;;;5041267;28;19921;-83
2022/02/09 10:14:10;;;;;;;;;;;;;;;;;;5054978;28;19908;-83
2022/02/09 10:33:03;;;;;;;;;;;;;;;;;;5026003;28;19925;-83
2022/02/09 10:36:03;;;;;;;;;;;;;;;;;;5029643;28;19909;-82
2022/02/09 10:38:51;;;;;;;;;;;;;;;;;;5029649;28;19916;-82
2022/02/09 10:41:43;;;;;;;;;;;;;;;;;;5008923;28;19919;-82
2022/02/09 10:44:29;;;;;;;;;;;;;;;;;;5029512;28;20399;-82
2022/02/09 10:47:16;;;;;;;;;;;;;;;;;;5040954;28;19915;-82
2022/02/09 10:50:02;;;;;;;;;;;;;;;;;;5030240;28;20373;-82
2022/02/09 10:52:49;;;;;;;;;;;;;;;;;;5019129;28;19917;-82
2022/02/09 10:55:36;;;;;;;;;;;;;;;;;;5022467;28;19916;-82
2022/02/09 10:58:24;;;;;;;;;;;;;;;;;;5033238;28;20436;-82
2022/02/09 11:01:10;;;;;;;;;;;;;;;;;;5013493;28;20403;-82
2022/02/09 11:03:57;;;;;;;;;;;;;;;;;;5014450;28;19913;-83
2022/02/09 11:06:43;;;;;;;;;;;;;;;;;;5016437;28;19909;-83
2022/02/09 11:09:30;;;;;;;;;;;;;;;;;;5014075;28;19917;-82
2022/02/09 11:12:16;;;;;;;;;;;;;;;;;;5023218;28;20381;-82
2022/02/09 11:15:02;;;;;;;;;;;;;;;;;;5015613;28;19920;-82
2022/02/09 11:17:49;;;;;;;;;;;;;;;;;;5021714;28;20303;-83
2022/02/09 11:20:38;;;;;;;;;;;;;;;;;;5017274;28;19915;-83
2022/02/09 11:23:26;;;;;;;;;;;;;;;;;;5019203;28;19913;-82
2022/02/09 11:26:12;;;;;;;;;;;;;;;;;;5024082;28;20297;-83
2022/02/09 11:28:59;;;;;;;;;;;;;;;;;;5028623;28;19917;-82
2022/02/09 11:31:45;;;;;;;;;;;;;;;;;;5035338;28;19929;-82
2022/02/09 11:34:32;;;;;;;;;;;;;;;;;;5050489;28;19913;-82
2022/02/09 11:37:32;;;;;;;;;;;;;;;;;;5045416;28;19923;-82
2022/02/09 11:40:19;;;;;;;;;;;;;;;;;;5041488;28;19988;-82
2022/02/09 11:43:06;;;;;;;;;;;;;;;;;;5042892;28;19909;-83
2022/02/09 12:09:45;;;;;;;;;;;;;;;;;;5039262;28;19992;-83
2022/02/09 12:12:32;;;;;;;;;;;;;;;;;;5038437;28;20294;-83
2022/02/09 12:15:42;;;;;;;;;;;;;;;;;;5042186;28;19924;-83
2022/02/09 12:18:28;;;;;;;;;;;;;;;;;;5039627;28;19912;-84
2022/02/09 12:21:17;;;;;;;;;;;;;;;;;;5041798;28;19920;-76
2022/02/09 12:24:03;;;;;;;;;;;;;;;;;;5039601;28;19916;-76
2022/02/09 12:26:50;;;;;;;;;;;;;;;;;;5038582;28;19908;-76
2022/02/09 12:29:36;;;;;;;;;;;;;;;;;;5044185;28;19939;-77
2022/02/09 12:32:23;;;;;;;;;;;;;;;;;;5033904;28;20287;-77
2022/02/09 12:35:10;;;;;;;;;;;;;;;;;;5044358;28;19917;-77
2022/02/09 12:37:56;;;;;;;;;;;;;;;;;;5038015;28;19920;-77
2022/02/09 12:40:43;;;;;;;;;;;;;;;;;;5040388;28;19917;-77
2022/02/09 12:43:29;;;;;;;;;;;;;;;;;;5040125;28;20288;-76
2022/02/09 12:46:16;;;;;;;;;;;;;;;;;;5046437;28;19919;-77
2022/02/09 12:49:02;;;;;;;;;;;;;;;;;;5033482;28;19913;-77
2022/02/09 12:51:50;;;;;;;;;;;;;;;;;;5042204;28;19917;-77
2022/02/09 12:54:37;;;;;;;;;;;;;;;;;;5048373;28;19909;-77
2022/02/09 12:57:23;;;;;;;;;;;;;;;;;;5048043;28;19920;-77
2022/02/09 13:00:10;;;;;;;;;;;;;;;;;;5041684;28;19916;-76
2022/02/09 13:02:56;;;;;;;;;;;;;;;;;;5033837;28;19936;-77
2022/02/09 13:05:43;;;;;;;;;;;;;;;;;;5045947;28;19917;-77
2022/02/09 13:08:29;;;;;;;;;;;;;;;;;;5049141;28;19912;-76
2022/02/09 13:11:26;;;;;;;;;;;;;;;;;;5054171;28;19913;-76
2022/02/09 13:14:22;;;;;;;;;;;;;;;;;;5050064;28;20291;-76
2022/02/09 14:15:28;;;;;;;;;;;;;;;;;;5044310;28;20482;-76
2022/02/09 14:18:47;;;;;;;;;;;;;;;;;;5044684;28;19916;-76
2022/02/09 14:55:27;;;;;;;;;;;;;;;;;;5060043;28;19909;-76
2022/02/09 14:58:11;;;;;;;;;;;;;;;;;;5050171;28;19919;-76
2022/02/09 15:01:09;;;;;;;;;;;;;;;;;;5029077;28;20276;-77
2022/02/09 15:12:56;;;;;;;;;;;;;;;;;;5034781;28;19928;-77
2022/02/09 15:24:52;;;;;;;;;;;;;;;;;;5048946;28;19909;-76
2022/02/09 15:27:42;;;;;;;;;;;;;;;;;;5044443;28;19917;-76
2022/02/09 15:30:32;;;;;;;;;;;;;;;;;;5034825;28;19921;-75
2022/02/09 15:33:31;;;;;;;;;;;;;;;;;;5044439;28;19920;-76
2022/02/09 15:36:35;;;;;;;;;;;;;;;;;;5047565;28;20472;-75
2022/02/09 15:39:24;;;;;;;;;;;;;;;;;;5036828;28;19912;-75
2022/02/09 15:42:59;;;;;;;;;;;;;;;;;;5039050;28;19913;-75
2022/02/09 16:34:11;;;;;;;;;;;;;;;;;;5037022;28;19932;-76
2022/02/09 16:46:27;;;;;;;;;;;;;;;;;;5048419;28;19912;-77
2022/02/09 16:49:25;;;;;;;;;;;;;;;;;;5046421;28;19913;-78
2022/02/09 16:52:18;;;;;;;;;;;;;;;;;;5047324;28;19917;-77
2022/02/09 16:55:37;;;;;;;;;;;;;;;;;;5041867;28;19920;-78
2022/02/09 17:19:54;;;;;;;;;;;;;;;;;;5046765;28;20395;-81
2022/02/09 17:22:40;;;;;;;;;;;;;;;;;;5038840;28;19917;-81
2022/02/09 17:25:27;;;;;;;;;;;;;;;;;;5040331;28;20357;-81
2022/02/09 17:28:16;;;;;;;;;;;;;;;;;;5038433;28;19928;-81
2022/02/09 17:34:10;;;;;;;;;;;;;;;;;;5040858;28;19917;-81
2022/02/09 17:58:06;;;;;;;;;;;;;;;;;;5047479;28;20317;-80
2022/02/09 18:00:53;;;;;;;;;;;;;;;;;;5048216;28;19909;-79
2022/02/09 18:03:41;;;;;;;;;;;;;;;;;;5049206;28;19919;-80
2022/02/09 18:06:32;;;;;;;;;;;;;;;;;;5045580;28;19920;-80
2022/02/09 18:09:26;;;;;;;;;;;;;;;;;;5041690;28;19912;-79
2022/02/09 18:12:47;;;;;;;;;;;;;;;;;;5040035;28;19929;-78
2022/02/09 18:15:57;;;;;;;;;;;;;;;;;;5046789;28;19917;-79
2022/02/09 18:31:14;;;;;;;;;;;;;;;;;;5040922;28;19931;-79
2022/02/09 18:34:22;;;;;;;;;;;;;;;;;;5038026;28;19921;-80
2022/02/09 18:44:11;;;;;;;;;;;;;;;;;;5039531;28;20375;-84
2022/02/09 19:02:36;;;;;;;;;;;;;;;;;;5047096;28;19924;-82
2022/02/09 19:05:30;;;;;;;;;;;;;;;;;;5037704;28;19920;-82
2022/02/09 19:08:32;;;;;;;;;;;;;;;;;;5046356;28;19950;-82
2022/02/09 19:20:55;;;;;;;;;;;;;;;;;;4997174;28;19912;-84
2022/02/09 19:27:05;;;;;;;;;;;;;;;;;;5040395;28;19917;-85
2022/02/09 19:30:54;;;;;;;;;;;;;;;;;;5038103;28;19925;-87
2022/02/09 19:57:22;;;;;;;;;;;;;;;;;;5042795;28;19925;-84
2022/02/09 19:59:49;;;;;;;;;;;;;;;;;;5039763;28;19952;-82
2022/02/09 20:02:16;;;;;;;;;;;;;;;;;;5045615;28;20421;-84
2022/02/09 20:04:42;;;;;;;;;;;;;;;;;;5034749;28;19963;-78
2022/02/09 20:07:11;;;;;;;;;;;;;;;;;;5039743;28;19953;-78
2022/02/09 20:09:40;;;;;;;;;;;;;;;;;;5035471;28;19967;-78
2022/02/09 20:12:06;;;;;;;;;;;;;;;;;;5039627;28;19968;-78
2022/02/09 20:14:33;;;;;;;;;;;;;;;;;;5017443;28;19927;-78
2022/02/09 20:16:59;;;;;;;;;;;;;;;;;;5033794;28;20514;-78
2022/02/09 20:19:28;;;;;;;;;;;;;;;;;;5039712;28;19968;-79
2022/02/09 20:21:54;;;;;;;;;;;;;;;;;;5036974;28;19957;-78
2022/02/09 20:24:23;;;;;;;;;;;;;;;;;;5037198;28;19925;-78
2022/02/09 20:26:52;;;;;;;;;;;;;;;;;;5034225;28;19960;-78
2022/02/09 20:29:24;;;;;;;;;;;;;;;;;;5040075;28;19964;-79
2022/02/09 20:32:07;;;;;;;;;;;;;;;;;;5037545;28;19975;-79
2022/02/09 20:34:44;;;;;;;;;;;;;;;;;;5035629;28;19920;-78
2022/02/09 20:37:10;;;;;;;;;;;;;;;;;;5041049;28;20890;-78
2022/02/09 20:39:51;;;;;;;;;;;;;;;;;;5039091;28;19917;-79
2022/02/09 20:42:18;;;;;;;;;;;;;;;;;;5041036;28;19945;-79
2022/02/09 20:44:53;;;;;;;;;;;;;;;;;;5036787;28;19978;-79
2022/02/09 20:47:19;;;;;;;;;;;;;;;;;;5034975;28;19967;-79
2022/02/09 20:49:45;;;;;;;;;;;;;;;;;;5029479;28;20010;-78
2022/02/09 20:52:13;;;;;;;;;;;;;;;;;;5046273;28;19960;-78
2022/02/09 20:54:40;;;;;;;;;;;;;;;;;;5036187;28;20650;-77
2022/02/09 20:57:06;;;;;;;;;;;;;;;;;;5040553;28;19964;-78
2022/02/09 20:59:38;;;;;;;;;;;;;;;;;;5041801;28;19963;-77
2022/02/09 21:02:19;;;;;;;;;;;;;;;;;;5042659;28;19956;-78
2022/02/09 21:04:49;;;;;;;;;;;;;;;;;;5041421;28;19949;-78
2022/02/09 21:07:24;;;;;;;;;;;;;;;;;;5042808;28;19952;-78
2022/02/09 21:09:59;;;;;;;;;;;;;;;;;;5050362;28;19956;-78
2022/02/09 21:12:38;;;;;;;;;;;;;;;;;;5035934;28;19925;-78
2022/02/09 21:55:10;;;;;;;;;;;;;;;;;;5026634;28;20073;-77
2022/02/09 21:57:51;;;;;;;;;;;;;;;;;;5018229;28;19965;-77
2022/02/09 22:00:31;;;;;;;;;;;;;;;;;;5023123;28;20569;-77
2022/02/09 22:22:02;;;;;;;;;;;;;;;;;;5023996;28;19945;-77
2022/02/09 22:27:24;;;;;;;;;;;;;;;;;;5017918;28;22313;-77
2022/02/09 22:48:58;;;;;;;;;;;;;;;;;;5040418;28;19952;-77
2022/02/09 22:56:36;;;;;;;;;;;;;;;;;;5041814;28;19976;-76
2022/02/09 22:59:08;;;;;;;;;;;;;;;;;;5040132;28;19928;-75
2022/02/09 23:01:42;;;;;;;;;;;;;;;;;;5041680;28;19957;-75
2022/02/09 23:06:54;;;;;;;;;;;;;;;;;;5043032;28;19952;-75
2022/02/09 23:23:11;;;;;;;;;;;;;;;;;;5045216;28;19948;-77
2022/02/09 23:26:09;;;;;;;;;;;;;;;;;;5022294;28;20015;-76
